Time;durP1;ratioP1;P1;durP2;ratioP2;P2;SDS_P1;SDS_P2;PMS_P1;PMS_P2;Temp;Humidity;BMP_temperature;BMP_pressure;BME280_temperature;BME280_humidity;BME280_pressure;Samples;Min_cycle;Max_cycle;Signal;HPM_P1;HPM_P2
2023/02/14 05:32:49;;;;;;;32.33;14.70;;;5.50;72.90;;;;;;6038900;23;20047;-77
2023/02/14 05:35:15;;;;;;;33.55;17.48;;;5.60;72.90;;;;;;6042087;23;20011;-75
2023/02/14 05:37:40;;;;;;;31.80;19.05;;;5.70;72.60;;;;;;6042662;23;20455;-76
2023/02/14 05:40:08;;;;;;;28.90;17.02;;;5.70;72.40;;;;;;6042028;23;20082;-76
2023/02/14 05:42:33;;;;;;;27.58;16.10;;;5.70;72.40;;;;;;6042814;23;20055;-78
2023/02/14 05:44:59;;;;;;;31.55;17.65;;;5.60;72.30;;;;;;6042666;23;19999;-76
2023/02/14 05:47:24;;;;;;;36.28;19.17;;;5.70;72.40;;;;;;6063703;23;20074;-78
2023/02/14 05:49:50;;;;;;;32.05;18.73;;;5.60;72.30;;;;;;6042371;23;20035;-77
2023/02/14 05:52:16;;;;;;;27.30;15.55;;;5.60;72.40;;;;;;6042468;23;20015;-82
2023/02/14 05:54:41;;;;;;;37.40;17.70;;;5.60;72.40;;;;;;6042518;23;20007;-78
2023/02/14 05:57:07;;;;;;;32.13;18.35;;;5.60;72.30;;;;;;6064703;23;20051;-79
2023/02/14 05:59:33;;;;;;;33.08;18.23;;;5.50;72.40;;;;;;6040841;23;20003;-80
2023/02/14 06:02:01;;;;;;;27.90;14.60;;;5.50;72.40;;;;;;6040468;23;20011;-78
2023/02/14 06:04:26;;;;;;;27.08;17.75;;;5.50;72.30;;;;;;6041974;23;20010;-79
2023/02/14 06:06:52;;;;;;;24.98;14.30;;;5.50;72.40;;;;;;6042959;23;20344;-78
2023/02/14 06:09:18;;;;;;;23.95;15.07;;;5.50;72.50;;;;;;6042161;23;20344;-78
2023/02/14 06:11:44;;;;;;;30.45;16.67;;;5.50;72.60;;;;;;6065550;23;20017;-78
2023/02/14 06:14:10;;;;;;;38.67;19.27;;;5.50;72.50;;;;;;6065003;23;20046;-78
2023/02/14 06:16:35;;;;;;;33.85;17.83;;;5.50;72.40;;;;;;6042510;23;20012;-78
2023/02/14 06:19:08;;;;;;;29.33;17.67;;;5.50;72.40;;;;;;6041813;23;20010;-78
2023/02/14 06:21:34;;;;;;;30.33;16.70;;;5.50;72.40;;;;;;6040688;23;20011;-78
2023/02/14 06:24:00;;;;;;;32.47;18.85;;;5.50;72.30;;;;;;6042588;23;20026;-75
2023/02/14 06:26:26;;;;;;;29.10;16.05;;;5.50;72.20;;;;;;6063666;23;20007;-76
2023/02/14 06:28:57;;;;;;;30.67;16.65;;;5.50;72.30;;;;;;6042396;23;20015;-76
2023/02/14 06:31:23;;;;;;;;;;;5.50;72.20;;;;;;6042664;23;20019;-76
2023/02/14 06:33:48;;;;;;;22.17;13.70;;;5.50;72.10;;;;;;6042401;23;19901;-75
2023/02/14 06:36:14;;;;;;;27.67;15.88;;;5.40;72.10;;;;;;6042310;23;20067;-76
2023/02/14 06:38:40;;;;;;;29.17;16.85;;;5.40;72.10;;;;;;6042026;23;20015;-76
2023/02/14 06:41:09;;;;;;;39.83;20.30;;;5.30;72.20;;;;;;6042660;23;20058;-75
2023/02/14 06:43:35;;;;;;;40.05;21.17;;;5.30;72.10;;;;;;6040603;23;20047;-75
2023/02/14 06:46:01;;;;;;;25.88;16.52;;;5.30;72.30;;;;;;6042525;23;20006;-76
2023/02/14 06:48:27;;;;;;;35.90;17.95;;;5.30;72.40;;;;;;6041567;23;20078;-76
2023/02/14 06:50:52;;;;;;;34.20;18.70;;;5.30;72.40;;;;;;6064594;23;20011;-76
2023/02/14 06:53:19;;;;;;;29.45;16.83;;;5.30;72.50;;;;;;6042191;23;20143;-76
2023/02/14 06:55:45;;;;;;;27.30;15.52;;;5.20;72.40;;;;;;6040557;23;20023;-76
2023/02/14 06:58:11;;;;;;;29.17;17.00;;;5.20;72.40;;;;;;6039498;23;20361;-76
2023/02/14 07:00:38;;;;;;;25.25;15.15;;;5.30;72.40;;;;;;6040016;23;20008;-76
2023/02/14 07:03:05;;;;;;;27.50;15.23;;;5.20;72.40;;;;;;6042084;23;20083;-76
2023/02/14 07:05:31;;;;;;;23.27;14.50;;;5.20;72.40;;;;;;6041681;23;20003;-76
2023/02/14 07:07:57;;;;;;;28.05;15.40;;;5.20;72.30;;;;;;6042219;23;20079;-76
2023/02/14 07:10:23;;;;;;;24.67;14.40;;;5.20;72.50;;;;;;6040254;23;20086;-76
2023/02/14 07:12:48;;;;;;;29.05;14.73;;;5.20;72.60;;;;;;6063102;23;20011;-76
2023/02/14 07:15:14;;;;;;;32.70;17.95;;;5.30;72.40;;;;;;6042048;23;20004;-76
2023/02/14 07:17:40;;;;;;;27.08;14.27;;;5.30;72.00;;;;;;6041587;23;20067;-76
2023/02/14 07:20:06;;;;;;;29.40;16.08;;;5.20;72.30;;;;;;6041712;23;20008;-76
2023/02/14 07:22:33;;;;;;;31.63;16.20;;;5.30;72.10;;;;;;6040798;23;20027;-76
2023/02/14 07:24:59;;;;;;;26.83;13.45;;;5.30;72.20;;;;;;6041609;23;20003;-76
2023/02/14 07:27:24;;;;;;;27.13;15.48;;;5.30;72.30;;;;;;6041758;23;20007;-76
2023/02/14 07:29:50;;;;;;;30.77;16.83;;;5.30;72.00;;;;;;6064286;23;20039;-76
2023/02/14 07:32:16;;;;;;;28.17;14.73;;;5.30;71.80;;;;;;6041586;23;20023;-76
2023/02/14 07:34:42;;;;;;;30.17;14.57;;;5.30;71.80;;;;;;6041445;23;20043;-75
2023/02/14 07:37:07;;;;;;;31.17;15.63;;;5.40;72.00;;;;;;6041967;23;20011;-76
2023/02/14 07:39:33;;;;;;;24.92;15.30;;;5.40;71.90;;;;;;6040367;23;20035;-76
2023/02/14 07:41:59;;;;;;;25.45;15.73;;;5.40;71.70;;;;;;6041059;23;20008;-76
2023/02/14 07:44:24;;;;;;;30.33;16.13;;;5.40;71.80;;;;;;6041219;23;20031;-76
2023/02/14 07:46:50;;;;;;;36.17;17.38;;;5.50;71.80;;;;;;6040855;23;20344;-75
2023/02/14 07:49:16;;;;;;;30.25;17.92;;;5.50;71.70;;;;;;6040512;23;20008;-76
2023/02/14 07:51:41;;;;;;;31.85;15.88;;;5.50;71.30;;;;;;6041186;23;20013;-75
2023/02/14 07:54:07;;;;;;;28.33;15.38;;;5.60;71.10;;;;;;6040520;23;20007;-76
2023/02/14 07:56:33;;;;;;;25.95;15.15;;;5.60;70.80;;;;;;6040546;23;20090;-79
2023/02/14 07:58:58;;;;;;;32.40;17.58;;;5.60;70.80;;;;;;6062746;23;20504;-76
2023/02/14 08:01:24;;;;;;;29.05;16.00;;;5.60;70.70;;;;;;6063791;23;20409;-75
2023/02/14 08:03:51;;;;;;;32.78;17.85;;;5.70;70.30;;;;;;6041418;23;20007;-75
2023/02/14 08:06:20;;;;;;;29.90;16.17;;;5.70;70.20;;;;;;6041659;23;20074;-75
2023/02/14 08:08:47;;;;;;;30.30;16.65;;;5.70;70.20;;;;;;6039316;23;20012;-75
2023/02/14 08:12:57;;;;;;;34.30;17.52;;;5.70;70.10;;;;;;6038684;23;20011;-75
2023/02/14 08:13:58;;;;;;;32.92;15.65;;;5.70;70.00;;;;;;6039026;23;20007;-75
2023/02/14 08:16:24;;;;;;;31.15;16.17;;;5.70;70.30;;;;;;6039826;23;20004;-76
2023/02/14 08:18:50;;;;;;;25.35;15.98;;;5.70;70.00;;;;;;6039743;23;20014;-75
2023/02/14 08:21:16;;;;;;;28.42;16.35;;;5.70;69.90;;;;;;6039673;23;20106;-76
2023/02/14 08:23:41;;;;;;;30.13;17.75;;;5.80;69.60;;;;;;6040036;23;20436;-75
2023/02/14 08:26:07;;;;;;;32.17;16.58;;;6.00;69.50;;;;;;6040155;23;20027;-75
2023/02/14 08:28:34;;;;;;;27.00;16.02;;;6.50;68.10;;;;;;6062255;23;20396;-75
2023/02/14 08:31:01;;;;;;;29.85;15.77;;;7.30;65.50;;;;;;6039860;23;20043;-75
2023/02/14 08:33:27;;;;;;;35.03;17.50;;;7.50;63.80;;;;;;6038341;23;20712;-76
2023/02/14 08:35:52;;;;;;;34.97;18.17;;;7.30;64.10;;;;;;6040435;23;20014;-76
2023/02/14 08:38:18;;;;;;;30.23;17.23;;;6.90;65.10;;;;;;6062959;23;20075;-77
2023/02/14 08:40:45;;;;;;;31.63;16.17;;;6.70;66.30;;;;;;6040352;23;20444;-77
2023/02/14 08:43:11;;;;;;;26.23;16.15;;;6.80;66.40;;;;;;6039134;23;20011;-77
2023/02/14 08:45:37;;;;;;;29.02;16.35;;;7.00;66.20;;;;;;6037058;23;20106;-76
2023/02/14 08:48:05;;;;;;;32.03;19.27;;;7.30;65.10;;;;;;6039936;23;20003;-77
2023/02/14 08:50:31;;;;;;;29.13;17.65;;;7.60;63.80;;;;;;6039829;23;20010;-76
2023/02/14 08:52:56;;;;;;;33.95;17.63;;;7.80;63.10;;;;;;6040474;23;20003;-77
2023/02/14 08:55:22;;;;;;;32.03;18.48;;;7.80;63.30;;;;;;6062519;23;20021;-77
2023/02/14 08:57:48;;;;;;;33.95;19.75;;;8.00;62.90;;;;;;6039681;23;20045;-76
2023/02/14 09:00:14;;;;;;;32.33;16.95;;;8.10;62.20;;;;;;6040404;23;20059;-77
2023/02/14 09:02:40;;;;;;;32.10;18.33;;;8.40;61.50;;;;;;6040765;23;20040;-77
2023/02/14 09:05:08;;;;;;;31.50;17.58;;;8.50;60.90;;;;;;6040045;23;20011;-77
2023/02/14 09:07:34;;;;;;;36.45;17.45;;;8.60;60.90;;;;;;6041804;23;20062;-76
2023/02/14 09:09:59;;;;;;;37.05;18.90;;;8.50;61.20;;;;;;6042492;23;20035;-76
2023/02/14 09:12:25;;;;;;;30.75;16.95;;;8.40;61.50;;;;;;6042134;23;20038;-76
2023/02/14 09:14:51;;;;;;;32.92;18.95;;;8.40;62.00;;;;;;6040695;23;20075;-76
2023/02/14 09:17:17;;;;;;;29.73;17.13;;;8.50;62.00;;;;;;6042683;23;20003;-77
2023/02/14 09:19:43;;;;;;;31.38;16.23;;;8.60;61.10;;;;;;6041728;23;20082;-77
2023/02/14 09:22:10;;;;;;;26.80;16.45;;;8.90;60.60;;;;;;6039922;23;20035;-77
2023/02/14 09:24:38;;;;;;;33.58;19.75;;;9.30;59.50;;;;;;6041177;23;20003;-77
2023/02/14 09:27:04;;;;;;;26.95;16.60;;;9.80;58.60;;;;;;6042900;23;20011;-77
2023/02/14 09:29:30;;;;;;;30.77;18.25;;;10.30;58.00;;;;;;6040868;23;20010;-77
2023/02/14 09:31:58;;;;;;;32.38;19.38;;;10.80;56.00;;;;;;6039402;23;20372;-76
2023/02/14 09:34:24;;;;;;;32.17;18.88;;;11.50;54.10;;;;;;6039619;23;20071;-77
2023/02/14 09:39:36;;;;;;;35.72;21.88;;;12.00;51.10;;;;;;6042233;23;20412;-77
2023/02/14 09:42:26;;;;;;;27.55;17.80;;;12.10;50.70;;;;;;6041615;23;20031;-76
2023/02/14 09:44:58;;;;;;;35.17;20.10;;;12.40;51.60;;;;;;6041033;23;20475;-77
2023/02/14 09:47:33;;;;;;;28.33;18.17;;;12.30;50.50;;;;;;6038682;23;20011;-76
2023/02/14 09:49:59;;;;;;;28.52;17.88;;;12.10;50.90;;;;;;6064499;23;20007;-77
2023/02/14 09:52:28;;;;;;;32.05;19.85;;;12.20;51.30;;;;;;6042282;23;20063;-77
2023/02/14 09:54:57;;;;;;;33.80;19.92;;;12.30;50.90;;;;;;6040510;23;20016;-75
2023/02/14 10:00:00;;;;;;;31.17;20.45;;;12.40;50.30;;;;;;6037865;23;20007;-75
2023/02/14 10:02:48;;;;;;;29.60;19.33;;;12.30;51.30;;;;;;6040381;23;20039;-76
2023/02/14 10:05:58;;;;;;;32.22;19.67;;;12.20;51.40;;;;;;6041808;23;20095;-76
2023/02/14 10:08:58;;;;;;;28.02;19.10;;;12.30;51.80;;;;;;6009432;23;20007;-76
2023/02/14 10:11:23;;;;;;;32.20;20.00;;;12.00;52.30;;;;;;6039942;23;20074;-76
2023/02/14 10:14:00;;;;;;;32.33;20.55;;;11.80;53.00;;;;;;6041607;23;20003;-76
2023/02/14 10:16:36;;;;;;;31.13;18.90;;;11.60;53.40;;;;;;6042172;23;20027;-76
2023/02/14 10:19:23;;;;;;;27.40;16.75;;;11.50;54.00;;;;;;6041645;23;20051;-76
2023/02/14 10:22:01;;;;;;;32.28;19.02;;;11.40;54.80;;;;;;6041001;23;20007;-76
2023/02/14 10:24:34;;;;;;;33.08;18.08;;;11.10;55.20;;;;;;6041633;23;20082;-76
2023/02/14 10:27:10;;;;;;;31.85;18.33;;;10.80;56.40;;;;;;6041058;23;20003;-76
2023/02/14 10:29:36;;;;;;;30.35;16.85;;;10.50;57.60;;;;;;6041371;23;20118;-75
2023/02/14 10:32:03;;;;;;;32.63;18.00;;;10.40;58.20;;;;;;6040821;23;20020;-76
2023/02/14 10:34:49;;;;;;;31.25;17.85;;;10.20;58.90;;;;;;6040253;23;20452;-76
2023/02/14 10:37:27;;;;;;;36.35;19.98;;;10.20;59.30;;;;;;6041285;23;20415;-76
2023/02/14 10:40:01;;;;;;;34.60;17.77;;;10.00;59.50;;;;;;6040721;23;20318;-75
2023/02/14 10:42:52;;;;;;;26.20;15.27;;;10.00;60.00;;;;;;6040887;23;20011;-76
2023/02/14 10:45:40;;;;;;;24.83;13.77;;;10.10;60.70;;;;;;6062672;23;20014;-77
2023/02/14 10:48:31;;;;;;;28.83;16.38;;;10.00;60.10;;;;;;6062782;23;20074;-77
2023/02/14 10:51:05;;;;;;;31.80;16.27;;;10.20;60.40;;;;;;6039869;23;20015;-77
2023/02/14 10:53:31;;;;;;;29.00;17.00;;;10.20;60.90;;;;;;6040078;23;20014;-78
2023/02/14 10:56:04;;;;;;;27.23;16.20;;;10.30;60.20;;;;;;6039700;23;20344;-77
2023/02/14 10:58:34;;;;;;;24.73;14.02;;;10.30;59.80;;;;;;6040760;23;20003;-77
2023/02/14 11:01:08;;;;;;;22.27;12.73;;;10.40;59.40;;;;;;6041706;23;20007;-77
2023/02/14 11:03:36;;;;;;;25.80;14.02;;;10.60;59.60;;;;;;6042037;23;20021;-77
2023/02/14 11:06:02;;;;;;;24.88;14.85;;;10.60;58.70;;;;;;6042120;23;20003;-77
2023/02/14 11:08:36;;;;;;;25.23;12.30;;;10.70;58.00;;;;;;6042347;23;20007;-77
2023/02/14 11:11:20;;;;;;;24.65;12.63;;;10.70;57.30;;;;;;6042385;23;20007;-77
2023/02/14 11:13:46;;;;;;;35.72;17.55;;;10.80;57.10;;;;;;6041975;23;20074;-77
2023/02/14 11:16:28;;;;;;;25.67;14.18;;;10.90;56.60;;;;;;6041462;23;20031;-78
2023/02/14 11:19:14;;;;;;;23.80;12.63;;;11.00;57.30;;;;;;6041742;23;20023;-77
2023/02/14 11:21:42;;;;;;;23.08;11.80;;;11.10;56.20;;;;;;6042077;23;20003;-77
2023/02/14 11:24:17;;;;;;;20.08;11.65;;;11.10;54.90;;;;;;6042358;23;20325;-77
2023/02/14 11:26:51;;;;;;;23.90;11.93;;;11.20;55.00;;;;;;6041904;23;20036;-77
2023/02/14 11:29:44;;;;;;;25.65;12.35;;;11.20;53.20;;;;;;6064683;23;20436;-77
2023/02/14 11:32:21;;;;;;;24.23;13.05;;;11.30;53.60;;;;;;6011908;23;20027;-77
2023/02/14 11:34:56;;;;;;;25.63;12.95;;;11.40;54.60;;;;;;6011385;23;20465;-77
2023/02/14 11:37:22;;;;;;;27.85;12.18;;;11.40;53.70;;;;;;6011472;23;20435;-77
2023/02/14 11:39:54;;;;;;;27.92;12.82;;;11.50;54.20;;;;;;6012085;23;20055;-77
2023/02/14 11:42:34;;;;;;;19.55;12.63;;;11.40;54.10;;;;;;6013755;23;20007;-77
2023/02/14 11:45:00;;;;;;;25.08;13.32;;;11.50;53.40;;;;;;6011950;23;20004;-77
2023/02/14 11:47:29;;;;;;;26.33;13.05;;;11.60;53.40;;;;;;6013381;23;20058;-77
2023/02/14 11:49:58;;;;;;;16.85;11.65;;;11.60;53.30;;;;;;6013645;23;20465;-77
2023/02/14 11:52:27;;;;;;;25.58;11.93;;;11.70;52.60;;;;;;6012894;23;20353;-78
2023/02/14 11:54:54;;;;;;;24.08;13.40;;;11.80;52.70;;;;;;6034952;23;20016;-77
2023/02/14 11:57:27;;;;;;;20.73;13.00;;;11.80;51.10;;;;;;6011727;23;20015;-77
2023/02/14 11:59:55;;;;;;;21.95;11.98;;;11.90;50.80;;;;;;6013996;23;20079;-78
2023/02/14 12:02:30;;;;;;;23.05;12.63;;;12.00;51.10;;;;;;6013274;23;20007;-77
2023/02/14 12:05:17;;;;;;;25.67;12.65;;;11.90;51.70;;;;;;6013950;23;20035;-78
2023/02/14 12:07:45;;;;;;;25.23;13.10;;;11.90;51.00;;;;;;6013322;23;20015;-78
2023/02/14 12:10:16;;;;;;;24.15;12.23;;;12.00;52.00;;;;;;6013678;23;20572;-78
2023/02/14 12:13:23;;;;;;;26.13;14.52;;;12.10;52.10;;;;;;6015062;23;20003;-77
2023/02/14 12:15:52;;;;;;;27.58;15.77;;;12.00;51.20;;;;;;6015563;23;20513;-77
2023/02/14 12:18:54;;;;;;;22.50;12.38;;;12.10;51.20;;;;;;6015043;23;20004;-77
2023/02/14 12:21:36;;;;;;;24.75;14.75;;;12.20;51.50;;;;;;6013837;23;20038;-78
2023/02/14 12:24:06;;;;;;;21.13;12.43;;;12.20;51.40;;;;;;6015514;23;20003;-77
2023/02/14 12:26:37;;;;;;;22.43;10.87;;;12.30;50.80;;;;;;6014756;23;20003;-77
2023/02/14 12:29:08;;;;;;;21.73;11.65;;;12.30;50.90;;;;;;6015267;23;20063;-77
2023/02/14 12:31:34;;;;;;;22.65;12.27;;;12.30;50.60;;;;;;6030399;23;20019;-77
2023/02/14 12:34:02;;;;;;;26.17;12.52;;;12.40;51.20;;;;;;6065939;23;20444;-77
2023/02/14 12:36:48;;;;;;;27.73;13.90;;;12.40;51.40;;;;;;6043348;23;20436;-77
2023/02/14 12:39:27;;;;;;;21.85;12.30;;;12.50;51.50;;;;;;6044038;23;20007;-77
2023/02/14 12:41:58;;;;;;;22.73;13.45;;;12.40;51.40;;;;;;6043818;23;20006;-77
2023/02/14 12:44:36;;;;;;;17.95;10.27;;;12.40;51.60;;;;;;6042869;23;20070;-77
2023/02/14 12:47:23;;;;;;;27.05;13.65;;;12.60;51.60;;;;;;6043571;23;20059;-77
2023/02/14 12:50:01;;;;;;;22.92;13.32;;;12.60;51.40;;;;;;6043411;23;20066;-77
2023/02/14 12:53:03;;;;;;;21.95;12.75;;;12.50;51.50;;;;;;6043108;23;20015;-77
2023/02/14 12:55:44;;;;;;;23.40;12.60;;;12.70;52.80;;;;;;6014209;23;20011;-77
2023/02/14 12:58:36;;;;;;;26.95;12.43;;;12.70;52.80;;;;;;6065821;23;20071;-77
2023/02/14 13:01:20;;;;;;;22.75;13.32;;;12.80;52.50;;;;;;6043203;23;20005;-77
2023/02/14 13:04:00;;;;;;;22.80;12.55;;;12.80;51.70;;;;;;6064951;23;20007;-77
2023/02/14 13:06:39;;;;;;;22.27;12.63;;;12.80;51.30;;;;;;6043708;23;20340;-77
2023/02/14 13:09:31;;;;;;;24.02;12.63;;;12.70;52.20;;;;;;6017841;23;20098;-77
2023/02/14 13:12:20;;;;;;;25.50;14.07;;;12.70;51.70;;;;;;6043099;23;19999;-78
2023/02/14 13:14:55;;;;;;;22.05;11.98;;;12.70;51.90;;;;;;6043902;23;20067;-77
2023/02/14 13:17:43;;;;;;;24.45;12.82;;;12.80;51.70;;;;;;6042840;23;20011;-77
2023/02/14 13:20:23;;;;;;;26.60;12.40;;;12.80;51.00;;;;;;6043175;23;20027;-78
2023/02/14 13:22:50;;;;;;;26.05;13.68;;;12.90;51.80;;;;;;6042730;23;20421;-78
2023/02/14 13:25:36;;;;;;;24.90;14.07;;;12.90;51.70;;;;;;6041217;23;20066;-78
2023/02/14 13:28:11;;;;;;;24.88;13.68;;;12.90;50.20;;;;;;6043095;23;20463;-78
2023/02/14 13:30:37;;;;;;;23.00;12.45;;;12.90;49.20;;;;;;6042532;23;20027;-78
2023/02/14 13:33:44;;;;;;;29.92;13.98;;;13.00;50.00;;;;;;6043145;23;20344;-77
2023/02/14 13:36:12;;;;;;;28.52;15.10;;;13.10;49.50;;;;;;6042828;23;20007;-77
2023/02/14 13:38:51;;;;;;;32.47;16.55;;;13.10;49.50;;;;;;6043577;23;20019;-77
2023/02/14 13:41:18;;;;;;;27.98;15.98;;;13.10;49.70;;;;;;6042633;23;20007;-77
2023/02/14 13:43:50;;;;;;;24.25;13.98;;;13.10;50.10;;;;;;6040769;23;20011;-77
2023/02/14 13:46:21;;;;;;;24.80;13.77;;;13.20;50.00;;;;;;6065375;23;20015;-77
2023/02/14 13:49:21;;;;;;;24.50;13.48;;;13.20;50.10;;;;;;6043169;23;20003;-77
2023/02/14 13:51:50;;;;;;;22.53;13.83;;;13.30;50.30;;;;;;6013902;23;20022;-77
2023/02/14 13:54:28;;;;;;;28.10;12.80;;;13.30;47.60;;;;;;6041710;23;20495;-77
2023/02/14 13:56:54;;;;;;;22.50;11.65;;;13.30;47.00;;;;;;6065586;23;20007;-77
2023/02/14 13:59:29;;;;;;;21.27;11.10;;;13.30;45.70;;;;;;6042389;23;20003;-78
2023/02/14 14:02:16;;;;;;;18.42;10.77;;;13.40;45.50;;;;;;6042284;23;20082;-78
2023/02/14 14:04:41;;;;;;;20.02;11.15;;;13.40;44.60;;;;;;6042175;23;20035;-77
2023/02/14 14:07:28;;;;;;;18.05;10.05;;;13.50;45.10;;;;;;6043204;23;20014;-77
2023/02/14 14:09:56;;;;;;;17.88;10.82;;;13.50;44.70;;;;;;6042920;23;20003;-78
2023/02/14 14:12:25;;;;;;;25.13;11.45;;;13.60;45.00;;;;;;6042805;23;20479;-78
2023/02/14 14:15:05;;;;;;;16.52;8.52;;;13.50;45.40;;;;;;6042544;23;20007;-77
2023/02/14 14:17:37;;;;;;;16.20;9.57;;;13.60;44.70;;;;;;6042345;23;20400;-77
2023/02/14 14:20:26;;;;;;;19.73;9.10;;;13.60;45.30;;;;;;6042291;23;20094;-77
2023/02/14 14:22:57;;;;;;;18.52;9.98;;;13.60;44.50;;;;;;6042448;23;19999;-78
2023/02/14 14:25:36;;;;;;;16.33;9.68;;;13.60;44.20;;;;;;6043041;23;20440;-78
2023/02/14 14:28:09;;;;;;;22.80;10.43;;;13.70;43.60;;;;;;6042825;23;20034;-78
2023/02/14 14:30:35;;;;;;;17.05;10.98;;;13.70;43.60;;;;;;6042445;23;20040;-78
2023/02/14 14:33:31;;;;;;;18.80;10.23;;;13.70;43.10;;;;;;6042539;23;20479;-78
2023/02/14 14:36:02;;;;;;;22.63;11.23;;;13.70;43.20;;;;;;6041529;23;20402;-78
2023/02/14 14:38:29;;;;;;;19.13;10.30;;;13.70;42.50;;;;;;6042996;23;20007;-77
2023/02/14 14:40:55;;;;;;;21.75;9.88;;;13.80;42.90;;;;;;6042534;23;20004;-78
2023/02/14 14:43:32;;;;;;;16.35;10.00;;;13.70;43.50;;;;;;6042371;23;20031;-78
2023/02/14 14:46:00;;;;;;;23.65;11.10;;;13.70;44.30;;;;;;6042619;23;20010;-78
2023/02/14 14:48:48;;;;;;;18.48;9.02;;;13.60;44.90;;;;;;6042414;23;20092;-78
2023/02/14 14:51:18;;;;;;;19.20;9.65;;;13.60;47.00;;;;;;6040600;23;20010;-77
2023/02/14 14:54:00;;;;;;;21.10;10.40;;;13.70;45.50;;;;;;6041748;23;20003;-78
2023/02/14 14:56:29;;;;;;;21.35;9.27;;;13.60;45.10;;;;;;6042399;23;20011;-78
2023/02/14 14:58:56;;;;;;;16.05;10.00;;;13.70;45.80;;;;;;6042513;23;20119;-78
2023/02/14 15:01:36;;;;;;;17.58;9.52;;;13.80;46.30;;;;;;6042588;23;20431;-78
2023/02/14 15:04:18;;;;;;;16.65;10.38;;;13.90;46.60;;;;;;6042308;23;20512;-78
2023/02/14 15:06:45;;;;;;;27.27;11.90;;;14.00;46.70;;;;;;6042762;23;20038;-78
2023/02/14 15:09:31;;;;;;;18.98;11.23;;;14.00;45.10;;;;;;6040232;23;20031;-78
2023/02/14 15:14:49;;;;;;;20.80;10.52;;;14.10;43.80;;;;;;6042469;23;20086;-78
2023/02/14 15:17:20;;;;;;;18.50;10.43;;;14.10;44.70;;;;;;6040876;23;20071;-79
2023/02/14 15:19:53;;;;;;;18.85;10.35;;;14.00;43.30;;;;;;6040165;23;20010;-81
2023/02/14 15:22:32;;;;;;;19.88;9.32;;;14.00;42.70;;;;;;6039625;23;20004;-79
2023/02/14 15:24:58;;;;;;;23.00;11.88;;;14.00;43.20;;;;;;6041234;23;20003;-79
2023/02/14 15:27:26;;;;;;;21.50;12.23;;;14.00;43.00;;;;;;6040723;23;20082;-79
2023/02/14 15:29:55;;;;;;;21.63;11.40;;;14.00;43.20;;;;;;6039039;23;20007;-83
2023/02/14 15:32:21;;;;;;;23.80;11.43;;;14.00;43.60;;;;;;6038767;23;20451;-78
2023/02/14 15:34:48;;;;;;;22.90;10.20;;;14.00;44.00;;;;;;6041059;23;20066;-79
2023/02/14 15:37:14;;;;;;;24.77;12.73;;;14.00;43.90;;;;;;6040737;23;20018;-79
2023/02/14 15:39:47;;;;;;;25.90;12.55;;;13.90;43.80;;;;;;6041193;23;20071;-81
2023/02/14 15:42:26;;;;;;;19.85;10.23;;;13.90;44.00;;;;;;6039640;23;20086;-79
2023/02/14 15:45:26;;;;;;;25.10;12.80;;;13.90;44.90;;;;;;6039181;23;20649;-78
2023/02/14 15:47:57;;;;;;;29.48;13.48;;;14.00;45.30;;;;;;6040205;23;20224;-78
2023/02/14 15:50:34;;;;;;;23.02;13.43;;;14.00;45.80;;;;;;6040869;23;20458;-78
2023/02/14 15:53:27;;;;;;;19.77;11.35;;;14.00;46.00;;;;;;6040294;23;20011;-78
2023/02/14 15:56:00;;;;;;;22.63;11.25;;;13.90;46.30;;;;;;6011443;23;20074;-78
2023/02/14 15:58:31;;;;;;;22.35;11.65;;;13.90;46.80;;;;;;6041649;23;20067;-78
2023/02/14 16:00:57;;;;;;;17.48;10.32;;;13.90;46.40;;;;;;6042101;23;20004;-78
2023/02/14 16:03:25;;;;;;;17.45;10.27;;;13.90;45.20;;;;;;6041148;23;20054;-78
2023/02/14 16:05:53;;;;;;;16.75;8.75;;;13.80;44.40;;;;;;6041642;23;20341;-78
2023/02/14 16:08:37;;;;;;;16.95;10.45;;;13.80;43.90;;;;;;6041324;23;20031;-78
2023/02/14 16:11:25;;;;;;;16.80;10.18;;;13.80;42.90;;;;;;6042082;23;20078;-79
2023/02/14 16:13:51;;;;;;;21.20;10.90;;;13.70;43.50;;;;;;6041610;23;20011;-79
2023/02/14 16:16:17;;;;;;;18.45;9.63;;;13.70;43.70;;;;;;6042017;23;20018;-78
2023/02/14 16:18:49;;;;;;;18.10;10.85;;;13.70;44.10;;;;;;6041202;23;20011;-78
2023/02/14 16:21:31;;;;;;;21.38;10.73;;;13.60;44.40;;;;;;6041951;23;20007;-78
2023/02/14 16:24:09;;;;;;;16.23;8.95;;;13.60;45.20;;;;;;6041542;23;19999;-78
2023/02/14 16:26:45;;;;;;;21.52;11.75;;;13.60;45.90;;;;;;6041710;23;20004;-78
2023/02/14 16:29:16;;;;;;;18.17;11.52;;;13.50;45.70;;;;;;6041443;23;20470;-78
2023/02/14 16:31:48;;;;;;;21.05;12.07;;;13.40;45.80;;;;;;6040369;23;20020;-78
2023/02/14 16:34:14;;;;;;;22.20;10.60;;;13.30;45.90;;;;;;6041667;23;20003;-78
2023/02/14 16:36:41;;;;;;;24.52;12.55;;;13.20;46.10;;;;;;6041555;23;20496;-78
2023/02/14 16:39:17;;;;;;;23.67;13.50;;;13.20;46.60;;;;;;6040388;23;20015;-78
2023/02/14 16:41:45;;;;;;;22.75;13.55;;;13.10;46.90;;;;;;6041583;23;19999;-79
2023/02/14 16:44:13;;;;;;;19.80;11.75;;;13.10;47.50;;;;;;6041521;23;20035;-78
2023/02/14 16:46:38;;;;;;;20.17;11.73;;;13.00;48.00;;;;;;6041692;23;20006;-79
2023/02/14 16:49:04;;;;;;;22.52;11.88;;;12.90;48.60;;;;;;6041569;23;20004;-78
2023/02/14 16:51:34;;;;;;;21.90;13.23;;;12.90;49.10;;;;;;6041849;23;20003;-78
2023/02/14 16:54:05;;;;;;;33.42;15.75;;;12.80;49.50;;;;;;6039947;23;20088;-78
2023/02/14 16:57:01;;;;;;;30.05;13.82;;;12.70;49.90;;;;;;6041798;23;20360;-78
2023/02/14 16:59:27;;;;;;;24.25;13.23;;;12.70;50.30;;;;;;6043363;23;20003;-79
2023/02/14 17:01:53;;;;;;;26.38;13.10;;;12.60;50.70;;;;;;6042210;23;20091;-79
2023/02/14 17:04:19;;;;;;;25.85;13.55;;;12.60;51.10;;;;;;6041522;23;20007;-79
2023/02/14 17:06:51;;;;;;;24.73;13.15;;;12.50;51.60;;;;;;6043598;23;20765;-78
2023/02/14 17:09:23;;;;;;;29.25;15.05;;;12.40;52.10;;;;;;6043005;23;20015;-78
2023/02/14 17:11:51;;;;;;;27.55;15.70;;;12.40;52.50;;;;;;6043023;23;19999;-79
2023/02/14 17:14:22;;;;;;;27.58;15.07;;;12.30;53.10;;;;;;6039934;23;20424;-78
2023/02/14 17:16:49;;;;;;;34.40;17.35;;;12.30;53.60;;;;;;6041141;23;20008;-83
2023/02/14 17:19:15;;;;;;;36.97;17.25;;;12.30;54.00;;;;;;6042114;23;20006;-82
2023/02/14 17:21:41;;;;;;;36.22;17.45;;;12.20;54.70;;;;;;6043156;23;20038;-78
2023/02/14 17:24:06;;;;;;;32.72;17.30;;;12.20;55.00;;;;;;6061494;23;20452;-78
2023/02/14 17:26:32;;;;;;;32.67;18.23;;;12.10;55.50;;;;;;6038858;23;20436;-76
2023/02/14 17:28:58;;;;;;;34.97;18.40;;;12.00;55.80;;;;;;6030138;23;20007;-79
2023/02/14 17:31:24;;;;;;;39.80;18.13;;;12.00;56.50;;;;;;6038962;23;20084;-78
2023/02/14 17:33:50;;;;;;;37.67;19.92;;;11.90;56.70;;;;;;6037759;23;20011;-79
2023/02/14 17:36:15;;;;;;;39.80;21.40;;;11.90;57.00;;;;;;6038988;23;20047;-79
2023/02/14 17:38:44;;;;;;;39.20;22.50;;;11.90;57.30;;;;;;6063988;23;20014;-78
2023/02/14 17:41:17;;;;;;;40.03;24.42;;;11.90;57.60;;;;;;6041870;23;20003;-78
2023/02/14 17:43:43;;;;;;;48.50;24.80;;;11.80;57.80;;;;;;6041984;23;20024;-78
2023/02/14 17:46:09;;;;;;;48.10;25.55;;;11.80;58.30;;;;;;6041692;23;19999;-78
2023/02/14 17:48:35;;;;;;;49.85;26.02;;;11.70;58.90;;;;;;6040143;23;20010;-78
2023/02/14 17:51:05;;;;;;;44.97;24.75;;;11.70;59.40;;;;;;6041566;23;20018;-78
2023/02/14 17:53:32;;;;;;;40.42;22.83;;;11.60;59.70;;;;;;6040268;23;20114;-78
2023/02/14 17:56:10;;;;;;;49.97;24.02;;;11.60;60.00;;;;;;6040204;23;20018;-79
2023/02/14 17:58:36;;;;;;;47.90;25.15;;;11.50;60.40;;;;;;6040302;23;20016;-78
2023/02/14 18:01:10;;;;;;;46.92;26.42;;;11.50;60.70;;;;;;6042341;23;20003;-76
2023/02/14 18:03:37;;;;;;;46.90;25.90;;;11.30;61.10;;;;;;6036218;23;20031;-79
2023/02/14 18:06:04;;;;;;;43.30;24.50;;;11.20;61.70;;;;;;6039301;23;20011;-78
2023/02/14 18:08:38;;;;;;;39.63;22.27;;;11.20;62.00;;;;;;6038954;23;20008;-78
2023/02/14 18:11:08;;;;;;;46.28;25.70;;;11.20;62.30;;;;;;6041540;23;20003;-76
2023/02/14 18:13:34;;;;;;;41.15;23.08;;;11.10;62.60;;;;;;6041135;23;20014;-82
2023/02/14 18:16:11;;;;;;;44.40;24.25;;;11.10;62.70;;;;;;6039794;23;20007;-81
2023/02/14 18:18:37;;;;;;;43.20;24.73;;;11.10;62.90;;;;;;6039923;23;20011;-78
2023/02/14 18:21:05;;;;;;;48.17;24.33;;;11.00;63.00;;;;;;6041461;23;20011;-78
2023/02/14 18:23:31;;;;;;;44.75;24.75;;;11.10;63.10;;;;;;6039598;23;20381;-79
2023/02/14 18:25:59;;;;;;;48.33;26.33;;;11.00;63.20;;;;;;6044235;23;20007;-79
2023/02/14 18:28:26;;;;;;;50.05;27.17;;;11.00;63.40;;;;;;6047830;23;20011;-80
2023/02/14 18:30:52;;;;;;;48.33;24.40;;;10.90;63.70;;;;;;6045520;23;20111;-81
2023/02/14 18:33:19;;;;;;;47.67;26.77;;;10.90;63.80;;;;;;6042988;23;20471;-80